sensor_id;sensor_type;location;lat;lon;timestamp;P1;durP1;ratioP1;P2;durP2;ratioP2
57389;SDS011;43217;52.694;6.214;2024-03-17T00:00:23;7.38;;;4.30;;
57389;SDS011;43217;52.694;6.214;2024-03-17T00:02:49;7.57;;;4.18;;
57389;SDS011;43217;52.694;6.214;2024-03-17T00:05:15;6.13;;;4.18;;
57389;SDS011;43217;52.694;6.214;2024-03-17T00:07:43;5.93;;;4.00;;
57389;SDS011;43217;52.694;6.214;2024-03-17T00:10:09;5.60;;;3.95;;
57389;SDS011;43217;52.694;6.214;2024-03-17T00:12:35;5.97;;;4.18;;
57389;SDS011;43217;52.694;6.214;2024-03-17T00:15:01;7.60;;;4.40;;
57389;SDS011;43217;52.694;6.214;2024-03-17T00:17:28;11.00;;;5.57;;
57389;SDS011;43217;52.694;6.214;2024-03-17T00:19:54;9.13;;;5.45;;
57389;SDS011;43217;52.694;6.214;2024-03-17T00:22:20;8.85;;;6.43;;
57389;SDS011;43217;52.694;6.214;2024-03-17T00:24:45;10.05;;;5.63;;
57389;SDS011;43217;52.694;6.214;2024-03-17T00:27:11;8.02;;;5.70;;
57389;SDS011;43217;52.694;6.214;2024-03-17T00:29:37;9.55;;;5.68;;
57389;SDS011;43217;52.694;6.214;2024-03-17T00:32:03;9.70;;;5.38;;
57389;SDS011;43217;52.694;6.214;2024-03-17T00:34:29;8.35;;;4.82;;
57389;SDS011;43217;52.694;6.214;2024-03-17T00:36:55;8.00;;;4.90;;
57389;SDS011;43217;52.694;6.214;2024-03-17T00:39:21;8.02;;;4.90;;
57389;SDS011;43217;52.694;6.214;2024-03-17T00:41:47;12.55;;;5.35;;
57389;SDS011;43217;52.694;6.214;2024-03-17T00:44:14;10.05;;;6.07;;
57389;SDS011;43217;52.694;6.214;2024-03-17T00:46:42;10.30;;;5.85;;
57389;SDS011;43217;52.694;6.214;2024-03-17T00:49:08;9.43;;;5.13;;
57389;SDS011;43217;52.694;6.214;2024-03-17T00:54:01;9.52;;;5.82;;
57389;SDS011;43217;52.694;6.214;2024-03-17T00:56:27;7.15;;;5.22;;
57389;SDS011;43217;52.694;6.214;2024-03-17T00:58:53;8.82;;;5.50;;
57389;SDS011;43217;52.694;6.214;2024-03-17T01:01:18;10.93;;;5.57;;
57389;SDS011;43217;52.694;6.214;2024-03-17T01:03:44;7.22;;;4.55;;
57389;SDS011;43217;52.694;6.214;2024-03-17T01:06:11;8.60;;;5.50;;
57389;SDS011;43217;52.694;6.214;2024-03-17T01:08:36;6.78;;;5.05;;
57389;SDS011;43217;52.694;6.214;2024-03-17T01:11:02;6.82;;;4.55;;
57389;SDS011;43217;52.694;6.214;2024-03-17T01:13:28;8.38;;;4.78;;
57389;SDS011;43217;52.694;6.214;2024-03-17T01:15:53;7.72;;;5.40;;
57389;SDS011;43217;52.694;6.214;2024-03-17T01:18:19;11.45;;;5.15;;
57389;SDS011;43217;52.694;6.214;2024-03-17T01:20:45;7.55;;;5.10;;
57389;SDS011;43217;52.694;6.214;2024-03-17T01:23:11;8.60;;;4.63;;
57389;SDS011;43217;52.694;6.214;2024-03-17T01:25:36;8.52;;;4.70;;
57389;SDS011;43217;52.694;6.214;2024-03-17T01:28:05;6.22;;;4.18;;
57389;SDS011;43217;52.694;6.214;2024-03-17T01:30:31;7.43;;;3.90;;
57389;SDS011;43217;52.694;6.214;2024-03-17T01:32:58;8.35;;;4.78;;
57389;SDS011;43217;52.694;6.214;2024-03-17T01:35:25;8.75;;;4.78;;
57389;SDS011;43217;52.694;6.214;2024-03-17T01:37:51;8.93;;;4.50;;
57389;SDS011;43217;52.694;6.214;2024-03-17T01:40:16;7.30;;;4.32;;
57389;SDS011;43217;52.694;6.214;2024-03-17T01:42:42;7.20;;;3.72;;
57389;SDS011;43217;52.694;6.214;2024-03-17T01:47:50;7.68;;;4.30;;
57389;SDS011;43217;52.694;6.214;2024-03-17T01:50:16;6.57;;;4.30;;
57389;SDS011;43217;52.694;6.214;2024-03-17T01:52:46;7.13;;;3.90;;
57389;SDS011;43217;52.694;6.214;2024-03-17T01:55:12;6.57;;;4.25;;
57389;SDS011;43217;52.694;6.214;2024-03-17T01:57:38;6.57;;;4.25;;
57389;SDS011;43217;52.694;6.214;2024-03-17T02:00:05;8.82;;;4.50;;
57389;SDS011;43217;52.694;6.214;2024-03-17T02:02:33;8.65;;;4.18;;
57389;SDS011;43217;52.694;6.214;2024-03-17T02:04:59;11.13;;;4.80;;
57389;SDS011;43217;52.694;6.214;2024-03-17T02:07:25;10.23;;;4.85;;
57389;SDS011;43217;52.694;6.214;2024-03-17T02:09:50;10.15;;;5.32;;
57389;SDS011;43217;52.694;6.214;2024-03-17T02:12:16;8.20;;;4.45;;
57389;SDS011;43217;52.694;6.214;2024-03-17T02:14:42;8.55;;;4.70;;
57389;SDS011;43217;52.694;6.214;2024-03-17T02:17:07;8.13;;;4.35;;
57389;SDS011;43217;52.694;6.214;2024-03-17T02:19:33;9.38;;;5.30;;
57389;SDS011;43217;52.694;6.214;2024-03-17T02:21:59;7.55;;;4.72;;
57389;SDS011;43217;52.694;6.214;2024-03-17T02:24:25;8.63;;;4.97;;
57389;SDS011;43217;52.694;6.214;2024-03-17T02:26:51;7.20;;;4.32;;
57389;SDS011;43217;52.694;6.214;2024-03-17T02:29:17;6.22;;;4.53;;
57389;SDS011;43217;52.694;6.214;2024-03-17T02:31:42;7.20;;;4.35;;
57389;SDS011;43217;52.694;6.214;2024-03-17T02:34:08;10.80;;;5.38;;
57389;SDS011;43217;52.694;6.214;2024-03-17T02:36:34;8.35;;;4.75;;
57389;SDS011;43217;52.694;6.214;2024-03-17T02:38:59;8.95;;;5.03;;
57389;SDS011;43217;52.694;6.214;2024-03-17T02:41:43;7.30;;;4.93;;
57389;SDS011;43217;52.694;6.214;2024-03-17T02:44:11;11.40;;;5.32;;
57389;SDS011;43217;52.694;6.214;2024-03-17T02:46:36;10.10;;;5.18;;
57389;SDS011;43217;52.694;6.214;2024-03-17T02:49:03;7.53;;;4.78;;
57389;SDS011;43217;52.694;6.214;2024-03-17T02:51:29;9.13;;;5.40;;
57389;SDS011;43217;52.694;6.214;2024-03-17T02:53:55;11.27;;;5.47;;
57389;SDS011;43217;52.694;6.214;2024-03-17T02:56:20;9.52;;;5.85;;
57389;SDS011;43217;52.694;6.214;2024-03-17T02:58:46;8.00;;;5.50;;
57389;SDS011;43217;52.694;6.214;2024-03-17T03:01:14;9.07;;;5.40;;
57389;SDS011;43217;52.694;6.214;2024-03-17T03:03:40;8.23;;;5.10;;
57389;SDS011;43217;52.694;6.214;2024-03-17T03:06:06;7.57;;;4.95;;
57389;SDS011;43217;52.694;6.214;2024-03-17T03:08:36;8.73;;;5.50;;
57389;SDS011;43217;52.694;6.214;2024-03-17T03:11:06;9.98;;;5.32;;
57389;SDS011;43217;52.694;6.214;2024-03-17T03:13:36;9.40;;;4.97;;
57389;SDS011;43217;52.694;6.214;2024-03-17T03:16:03;10.23;;;5.22;;
57389;SDS011;43217;52.694;6.214;2024-03-17T03:18:30;9.10;;;5.40;;
57389;SDS011;43217;52.694;6.214;2024-03-17T03:20:55;9.25;;;5.20;;
57389;SDS011;43217;52.694;6.214;2024-03-17T03:23:21;9.70;;;5.22;;
57389;SDS011;43217;52.694;6.214;2024-03-17T03:25:46;8.88;;;5.13;;
57389;SDS011;43217;52.694;6.214;2024-03-17T03:28:13;9.32;;;5.22;;
57389;SDS011;43217;52.694;6.214;2024-03-17T03:30:38;8.38;;;4.90;;
57389;SDS011;43217;52.694;6.214;2024-03-17T03:33:04;7.90;;;5.50;;
57389;SDS011;43217;52.694;6.214;2024-03-17T03:35:30;12.55;;;5.85;;
57389;SDS011;43217;52.694;6.214;2024-03-17T03:37:56;9.10;;;5.07;;
57389;SDS011;43217;52.694;6.214;2024-03-17T03:40:22;11.73;;;5.20;;
57389;SDS011;43217;52.694;6.214;2024-03-17T03:42:48;7.78;;;5.50;;
57389;SDS011;43217;52.694;6.214;2024-03-17T03:45:13;9.38;;;5.70;;
57389;SDS011;43217;52.694;6.214;2024-03-17T03:47:42;8.27;;;5.15;;
57389;SDS011;43217;52.694;6.214;2024-03-17T03:50:09;11.15;;;5.97;;
57389;SDS011;43217;52.694;6.214;2024-03-17T03:52:38;10.00;;;5.13;;
57389;SDS011;43217;52.694;6.214;2024-03-17T03:55:06;8.23;;;5.43;;
57389;SDS011;43217;52.694;6.214;2024-03-17T03:57:41;11.32;;;5.72;;
57389;SDS011;43217;52.694;6.214;2024-03-17T04:00:07;10.07;;;6.10;;
57389;SDS011;43217;52.694;6.214;2024-03-17T04:02:39;9.35;;;5.63;;
57389;SDS011;43217;52.694;6.214;2024-03-17T04:05:06;7.97;;;5.60;;
57389;SDS011;43217;52.694;6.214;2024-03-17T04:07:32;12.40;;;6.10;;
57389;SDS011;43217;52.694;6.214;2024-03-17T04:09:59;9.07;;;5.70;;
57389;SDS011;43217;52.694;6.214;2024-03-17T04:12:25;10.15;;;6.22;;
57389;SDS011;43217;52.694;6.214;2024-03-17T04:14:52;10.80;;;6.47;;
57389;SDS011;43217;52.694;6.214;2024-03-17T04:17:19;11.18;;;6.60;;
57389;SDS011;43217;52.694;6.214;2024-03-17T04:22:18;12.85;;;6.85;;
57389;SDS011;43217;52.694;6.214;2024-03-17T04:24:48;8.77;;;6.10;;
57389;SDS011;43217;52.694;6.214;2024-03-17T04:27:22;9.68;;;6.10;;
57389;SDS011;43217;52.694;6.214;2024-03-17T04:29:55;11.32;;;6.95;;
57389;SDS011;43217;52.694;6.214;2024-03-17T04:32:22;12.63;;;6.72;;
57389;SDS011;43217;52.694;6.214;2024-03-17T04:34:48;11.43;;;6.60;;
57389;SDS011;43217;52.694;6.214;2024-03-17T04:37:14;12.23;;;6.57;;
57389;SDS011;43217;52.694;6.214;2024-03-17T04:39:43;12.07;;;6.38;;
57389;SDS011;43217;52.694;6.214;2024-03-17T04:42:10;12.27;;;7.10;;
57389;SDS011;43217;52.694;6.214;2024-03-17T04:44:40;9.15;;;6.90;;
57389;SDS011;43217;52.694;6.214;2024-03-17T04:47:07;11.95;;;7.43;;
57389;SDS011;43217;52.694;6.214;2024-03-17T04:49:36;11.88;;;7.05;;
57389;SDS011;43217;52.694;6.214;2024-03-17T04:52:03;10.75;;;7.65;;
57389;SDS011;43217;52.694;6.214;2024-03-17T04:54:30;11.23;;;7.07;;
57389;SDS011;43217;52.694;6.214;2024-03-17T04:56:56;12.68;;;7.50;;
57389;SDS011;43217;52.694;6.214;2024-03-17T04:59:22;11.82;;;8.02;;
57389;SDS011;43217;52.694;6.214;2024-03-17T05:01:47;13.35;;;7.90;;
57389;SDS011;43217;52.694;6.214;2024-03-17T05:04:13;13.25;;;8.10;;
57389;SDS011;43217;52.694;6.214;2024-03-17T05:06:40;11.63;;;8.45;;
57389;SDS011;43217;52.694;6.214;2024-03-17T05:09:07;13.23;;;8.52;;
57389;SDS011;43217;52.694;6.214;2024-03-17T05:11:33;12.13;;;8.18;;
57389;SDS011;43217;52.694;6.214;2024-03-17T05:14:00;13.52;;;8.73;;
57389;SDS011;43217;52.694;6.214;2024-03-17T05:16:26;12.95;;;8.65;;
57389;SDS011;43217;52.694;6.214;2024-03-17T05:18:54;12.40;;;8.18;;
57389;SDS011;43217;52.694;6.214;2024-03-17T05:21:20;13.95;;;9.10;;
57389;SDS011;43217;52.694;6.214;2024-03-17T05:23:47;11.85;;;8.35;;
57389;SDS011;43217;52.694;6.214;2024-03-17T05:26:13;10.82;;;8.70;;
57389;SDS011;43217;52.694;6.214;2024-03-17T05:28:39;9.50;;;7.88;;
57389;SDS011;43217;52.694;6.214;2024-03-17T05:31:05;11.40;;;9.25;;
57389;SDS011;43217;52.694;6.214;2024-03-17T05:33:30;10.82;;;8.10;;
57389;SDS011;43217;52.694;6.214;2024-03-17T05:36:01;11.88;;;7.80;;
57389;SDS011;43217;52.694;6.214;2024-03-17T05:38:28;10.40;;;7.15;;
57389;SDS011;43217;52.694;6.214;2024-03-17T05:40:55;10.83;;;8.03;;
57389;SDS011;43217;52.694;6.214;2024-03-17T05:43:28;13.77;;;8.07;;
57389;SDS011;43217;52.694;6.214;2024-03-17T05:45:59;12.82;;;8.30;;
57389;SDS011;43217;52.694;6.214;2024-03-17T05:48:26;9.38;;;7.85;;
57389;SDS011;43217;52.694;6.214;2024-03-17T05:50:52;10.77;;;7.38;;
57389;SDS011;43217;52.694;6.214;2024-03-17T05:53:18;12.85;;;7.20;;
57389;SDS011;43217;52.694;6.214;2024-03-17T05:55:45;12.32;;;8.23;;
57389;SDS011;43217;52.694;6.214;2024-03-17T05:58:11;11.90;;;7.93;;
57389;SDS011;43217;52.694;6.214;2024-03-17T06:00:39;11.18;;;7.47;;
57389;SDS011;43217;52.694;6.214;2024-03-17T06:03:05;9.90;;;7.57;;
57389;SDS011;43217;52.694;6.214;2024-03-17T06:05:32;12.40;;;8.03;;
57389;SDS011;43217;52.694;6.214;2024-03-17T06:07:59;11.87;;;7.67;;
57389;SDS011;43217;52.694;6.214;2024-03-17T06:10:27;10.23;;;7.53;;
57389;SDS011;43217;52.694;6.214;2024-03-17T06:12:53;13.93;;;8.57;;
57389;SDS011;43217;52.694;6.214;2024-03-17T06:15:18;12.07;;;7.85;;
57389;SDS011;43217;52.694;6.214;2024-03-17T06:17:46;11.73;;;8.18;;
57389;SDS011;43217;52.694;6.214;2024-03-17T06:20:11;12.02;;;8.70;;
57389;SDS011;43217;52.694;6.214;2024-03-17T06:22:38;13.20;;;7.95;;
57389;SDS011;43217;52.694;6.214;2024-03-17T06:25:04;12.52;;;8.52;;
57389;SDS011;43217;52.694;6.214;2024-03-17T06:27:34;12.20;;;8.60;;
57389;SDS011;43217;52.694;6.214;2024-03-17T06:30:00;13.90;;;7.72;;
57389;SDS011;43217;52.694;6.214;2024-03-17T06:32:29;14.75;;;8.68;;
57389;SDS011;43217;52.694;6.214;2024-03-17T06:34:56;11.55;;;8.40;;
57389;SDS011;43217;52.694;6.214;2024-03-17T06:37:22;13.30;;;8.68;;
57389;SDS011;43217;52.694;6.214;2024-03-17T06:39:48;10.05;;;8.00;;
57389;SDS011;43217;52.694;6.214;2024-03-17T06:42:14;9.82;;;7.70;;
57389;SDS011;43217;52.694;6.214;2024-03-17T06:44:40;12.52;;;8.95;;
57389;SDS011;43217;52.694;6.214;2024-03-17T06:47:06;12.43;;;8.73;;
57389;SDS011;43217;52.694;6.214;2024-03-17T06:49:31;11.35;;;8.80;;
57389;SDS011;43217;52.694;6.214;2024-03-17T06:51:57;14.30;;;8.43;;
57389;SDS011;43217;52.694;6.214;2024-03-17T06:54:23;14.48;;;9.18;;
57389;SDS011;43217;52.694;6.214;2024-03-17T06:56:49;15.43;;;9.40;;
57389;SDS011;43217;52.694;6.214;2024-03-17T06:59:16;11.57;;;9.63;;
57389;SDS011;43217;52.694;6.214;2024-03-17T07:01:42;11.07;;;8.80;;
57389;SDS011;43217;52.694;6.214;2024-03-17T07:04:09;11.13;;;9.40;;
57389;SDS011;43217;52.694;6.214;2024-03-17T07:06:35;14.98;;;11.40;;
57389;SDS011;43217;52.694;6.214;2024-03-17T07:09:01;14.70;;;10.98;;
57389;SDS011;43217;52.694;6.214;2024-03-17T07:11:27;16.83;;;10.27;;
57389;SDS011;43217;52.694;6.214;2024-03-17T07:13:53;17.50;;;11.05;;
57389;SDS011;43217;52.694;6.214;2024-03-17T07:16:19;13.80;;;10.32;;
57389;SDS011;43217;52.694;6.214;2024-03-17T07:21:12;13.32;;;11.32;;
57389;SDS011;43217;52.694;6.214;2024-03-17T07:23:38;15.15;;;12.75;;
57389;SDS011;43217;52.694;6.214;2024-03-17T07:26:04;16.10;;;11.20;;
57389;SDS011;43217;52.694;6.214;2024-03-17T07:28:30;15.27;;;11.90;;
57389;SDS011;43217;52.694;6.214;2024-03-17T07:30:57;14.80;;;10.70;;
57389;SDS011;43217;52.694;6.214;2024-03-17T07:33:25;13.88;;;10.50;;
57389;SDS011;43217;52.694;6.214;2024-03-17T07:35:52;14.63;;;10.95;;
57389;SDS011;43217;52.694;6.214;2024-03-17T07:38:22;14.90;;;11.57;;
57389;SDS011;43217;52.694;6.214;2024-03-17T07:43:49;39.38;;;29.90;;
57389;SDS011;43217;52.694;6.214;2024-03-17T07:46:15;13.73;;;12.32;;
57389;SDS011;43217;52.694;6.214;2024-03-17T07:48:41;14.25;;;12.43;;
57389;SDS011;43217;52.694;6.214;2024-03-17T07:51:09;16.60;;;12.05;;
57389;SDS011;43217;52.694;6.214;2024-03-17T07:53:40;15.65;;;12.20;;
57389;SDS011;43217;52.694;6.214;2024-03-17T07:56:10;12.45;;;11.15;;
57389;SDS011;43217;52.694;6.214;2024-03-17T07:58:40;16.88;;;11.45;;
57389;SDS011;43217;52.694;6.214;2024-03-17T08:01:07;13.60;;;11.25;;
57389;SDS011;43217;52.694;6.214;2024-03-17T08:03:34;13.48;;;12.10;;
57389;SDS011;43217;52.694;6.214;2024-03-17T08:06:05;12.02;;;10.30;;
57389;SDS011;43217;52.694;6.214;2024-03-17T08:08:34;13.40;;;10.85;;
57389;SDS011;43217;52.694;6.214;2024-03-17T08:11:00;14.18;;;11.35;;
57389;SDS011;43217;52.694;6.214;2024-03-17T08:13:29;15.93;;;11.55;;
57389;SDS011;43217;52.694;6.214;2024-03-17T08:16:00;13.27;;;11.88;;
57389;SDS011;43217;52.694;6.214;2024-03-17T08:18:27;13.45;;;10.75;;
57389;SDS011;43217;52.694;6.214;2024-03-17T08:20:53;14.73;;;11.80;;
57389;SDS011;43217;52.694;6.214;2024-03-17T08:23:19;15.48;;;11.57;;
57389;SDS011;43217;52.694;6.214;2024-03-17T08:25:52;15.82;;;11.35;;
57389;SDS011;43217;52.694;6.214;2024-03-17T08:28:19;14.77;;;11.60;;
57389;SDS011;43217;52.694;6.214;2024-03-17T08:30:54;17.88;;;12.57;;
57389;SDS011;43217;52.694;6.214;2024-03-17T08:33:24;14.13;;;10.75;;
57389;SDS011;43217;52.694;6.214;2024-03-17T08:35:54;12.35;;;10.65;;
57389;SDS011;43217;52.694;6.214;2024-03-17T08:38:25;13.38;;;10.90;;
57389;SDS011;43217;52.694;6.214;2024-03-17T08:40:52;14.30;;;12.00;;
57389;SDS011;43217;52.694;6.214;2024-03-17T08:43:19;12.05;;;10.77;;
57389;SDS011;43217;52.694;6.214;2024-03-17T08:45:59;13.82;;;11.27;;
57389;SDS011;43217;52.694;6.214;2024-03-17T08:48:28;15.90;;;11.13;;
57389;SDS011;43217;52.694;6.214;2024-03-17T08:50:55;11.63;;;10.43;;
57389;SDS011;43217;52.694;6.214;2024-03-17T08:53:22;16.88;;;11.50;;
57389;SDS011;43217;52.694;6.214;2024-03-17T08:55:48;11.63;;;10.40;;
57389;SDS011;43217;52.694;6.214;2024-03-17T08:58:15;12.85;;;11.48;;
57389;SDS011;43217;52.694;6.214;2024-03-17T09:00:41;13.00;;;10.90;;
57389;SDS011;43217;52.694;6.214;2024-03-17T09:03:07;12.35;;;11.13;;
57389;SDS011;43217;52.694;6.214;2024-03-17T09:05:37;14.07;;;10.82;;
57389;SDS011;43217;52.694;6.214;2024-03-17T09:08:04;10.13;;;9.13;;
57389;SDS011;43217;52.694;6.214;2024-03-17T09:10:31;10.15;;;9.13;;
57389;SDS011;43217;52.694;6.214;2024-03-17T09:12:56;10.45;;;9.13;;
57389;SDS011;43217;52.694;6.214;2024-03-17T09:15:22;9.77;;;8.30;;
57389;SDS011;43217;52.694;6.214;2024-03-17T09:17:48;8.70;;;8.00;;
57389;SDS011;43217;52.694;6.214;2024-03-17T09:20:13;9.38;;;8.10;;
57389;SDS011;43217;52.694;6.214;2024-03-17T09:22:42;10.23;;;8.48;;
57389;SDS011;43217;52.694;6.214;2024-03-17T09:25:08;7.88;;;7.07;;
57389;SDS011;43217;52.694;6.214;2024-03-17T09:27:34;8.38;;;7.55;;
57389;SDS011;43217;52.694;6.214;2024-03-17T09:30:02;8.38;;;7.43;;
57389;SDS011;43217;52.694;6.214;2024-03-17T09:32:31;8.55;;;7.68;;
57389;SDS011;43217;52.694;6.214;2024-03-17T09:34:57;8.80;;;7.90;;
57389;SDS011;43217;52.694;6.214;2024-03-17T09:37:23;7.90;;;7.05;;
57389;SDS011;43217;52.694;6.214;2024-03-17T09:39:48;8.68;;;7.10;;
57389;SDS011;43217;52.694;6.214;2024-03-17T09:42:19;7.57;;;6.78;;
57389;SDS011;43217;52.694;6.214;2024-03-17T09:44:48;9.07;;;7.20;;
57389;SDS011;43217;52.694;6.214;2024-03-17T09:47:20;10.05;;;7.45;;
57389;SDS011;43217;52.694;6.214;2024-03-17T09:49:46;9.70;;;8.30;;
57389;SDS011;43217;52.694;6.214;2024-03-17T09:52:19;8.52;;;6.97;;
57389;SDS011;43217;52.694;6.214;2024-03-17T09:54:51;8.63;;;7.70;;
57389;SDS011;43217;52.694;6.214;2024-03-17T09:57:26;8.35;;;7.28;;
57389;SDS011;43217;52.694;6.214;2024-03-17T09:59:54;8.98;;;8.10;;
57389;SDS011;43217;52.694;6.214;2024-03-17T10:02:20;10.52;;;9.52;;
57389;SDS011;43217;52.694;6.214;2024-03-17T10:04:46;9.10;;;8.20;;
57389;SDS011;43217;52.694;6.214;2024-03-17T10:07:11;9.02;;;8.10;;
57389;SDS011;43217;52.694;6.214;2024-03-17T10:09:37;8.82;;;7.30;;
57389;SDS011;43217;52.694;6.214;2024-03-17T10:12:04;10.18;;;8.70;;
57389;SDS011;43217;52.694;6.214;2024-03-17T10:14:31;9.93;;;8.83;;
57389;SDS011;43217;52.694;6.214;2024-03-17T10:16:56;9.00;;;8.10;;
57389;SDS011;43217;52.694;6.214;2024-03-17T10:19:22;8.40;;;7.55;;
57389;SDS011;43217;52.694;6.214;2024-03-17T10:21:49;11.43;;;9.73;;
57389;SDS011;43217;52.694;6.214;2024-03-17T10:24:23;11.40;;;9.57;;
57389;SDS011;43217;52.694;6.214;2024-03-17T10:26:50;13.45;;;12.02;;
57389;SDS011;43217;52.694;6.214;2024-03-17T10:31:51;12.18;;;8.80;;
57389;SDS011;43217;52.694;6.214;2024-03-17T10:34:20;10.10;;;8.85;;
57389;SDS011;43217;52.694;6.214;2024-03-17T10:36:50;12.13;;;9.32;;
57389;SDS011;43217;52.694;6.214;2024-03-17T10:39:31;10.30;;;9.35;;
57389;SDS011;43217;52.694;6.214;2024-03-17T10:41:58;11.68;;;9.45;;
57389;SDS011;43217;52.694;6.214;2024-03-17T10:44:28;10.10;;;9.20;;
57389;SDS011;43217;52.694;6.214;2024-03-17T10:46:54;11.83;;;9.60;;
57389;SDS011;43217;52.694;6.214;2024-03-17T10:49:23;10.23;;;9.20;;
57389;SDS011;43217;52.694;6.214;2024-03-17T10:51:57;9.80;;;8.93;;
57389;SDS011;43217;52.694;6.214;2024-03-17T10:54:24;11.13;;;10.10;;
57389;SDS011;43217;52.694;6.214;2024-03-17T10:57:16;14.23;;;11.43;;
57389;SDS011;43217;52.694;6.214;2024-03-17T10:59:59;10.50;;;9.48;;
57389;SDS011;43217;52.694;6.214;2024-03-17T11:02:28;11.13;;;9.63;;
57389;SDS011;43217;52.694;6.214;2024-03-17T11:05:01;10.70;;;9.27;;
57389;SDS011;43217;52.694;6.214;2024-03-17T11:07:31;10.43;;;9.35;;
57389;SDS011;43217;52.694;6.214;2024-03-17T11:09:58;9.73;;;8.73;;
57389;SDS011;43217;52.694;6.214;2024-03-17T11:12:39;10.18;;;9.10;;
57389;SDS011;43217;52.694;6.214;2024-03-17T11:17:55;8.88;;;7.65;;
57389;SDS011;43217;52.694;6.214;2024-03-17T11:21:03;8.70;;;7.53;;
57389;SDS011;43217;52.694;6.214;2024-03-17T11:23:54;8.40;;;7.43;;
57389;SDS011;43217;52.694;6.214;2024-03-17T11:26:28;8.88;;;7.97;;
57389;SDS011;43217;52.694;6.214;2024-03-17T11:28:55;8.38;;;7.13;;
57389;SDS011;43217;52.694;6.214;2024-03-17T11:31:35;8.88;;;7.97;;
57389;SDS011;43217;52.694;6.214;2024-03-17T11:34:27;9.30;;;8.25;;
57389;SDS011;43217;52.694;6.214;2024-03-17T11:36:55;21.42;;;19.42;;
57389;SDS011;43217;52.694;6.214;2024-03-17T11:42:23;9.10;;;8.30;;
57389;SDS011;43217;52.694;6.214;2024-03-17T11:45:24;9.68;;;7.75;;
57389;SDS011;43217;52.694;6.214;2024-03-17T11:47:46;9.15;;;8.35;;
57389;SDS011;43217;52.694;6.214;2024-03-17T11:50:13;9.27;;;8.40;;
57389;SDS011;43217;52.694;6.214;2024-03-17T11:52:41;10.57;;;8.82;;
57389;SDS011;43217;52.694;6.214;2024-03-17T11:55:16;10.18;;;8.48;;
57389;SDS011;43217;52.694;6.214;2024-03-17T11:57:43;10.65;;;8.68;;
57389;SDS011;43217;52.694;6.214;2024-03-17T12:00:21;12.02;;;10.40;;
57389;SDS011;43217;52.694;6.214;2024-03-17T12:02:48;9.10;;;8.23;;
57389;SDS011;43217;52.694;6.214;2024-03-17T12:05:14;9.40;;;8.50;;
57389;SDS011;43217;52.694;6.214;2024-03-17T12:07:43;8.45;;;7.75;;
57389;SDS011;43217;52.694;6.214;2024-03-17T12:10:10;8.98;;;8.18;;
57389;SDS011;43217;52.694;6.214;2024-03-17T12:12:36;8.32;;;7.53;;
57389;SDS011;43217;52.694;6.214;2024-03-17T12:15:02;7.90;;;7.20;;
57389;SDS011;43217;52.694;6.214;2024-03-17T12:17:30;7.70;;;7.00;;
57389;SDS011;43217;52.694;6.214;2024-03-17T12:19:56;7.00;;;6.35;;
57389;SDS011;43217;52.694;6.214;2024-03-17T12:22:22;11.75;;;9.73;;
57389;SDS011;43217;52.694;6.214;2024-03-17T12:24:57;10.32;;;9.25;;
57389;SDS011;43217;52.694;6.214;2024-03-17T12:27:25;12.48;;;9.60;;
57389;SDS011;43217;52.694;6.214;2024-03-17T12:29:51;9.80;;;8.80;;
57389;SDS011;43217;52.694;6.214;2024-03-17T12:32:19;8.65;;;7.50;;
57389;SDS011;43217;52.694;6.214;2024-03-17T12:34:48;9.45;;;8.48;;
57389;SDS011;43217;52.694;6.214;2024-03-17T12:37:16;8.43;;;7.72;;
57389;SDS011;43217;52.694;6.214;2024-03-17T12:39:43;8.65;;;7.88;;
57389;SDS011;43217;52.694;6.214;2024-03-17T12:42:15;10.55;;;9.45;;
57389;SDS011;43217;52.694;6.214;2024-03-17T12:44:48;8.45;;;7.47;;
57389;SDS011;43217;52.694;6.214;2024-03-17T12:47:36;7.68;;;6.88;;
57389;SDS011;43217;52.694;6.214;2024-03-17T12:50:01;7.93;;;7.03;;
57389;SDS011;43217;52.694;6.214;2024-03-17T12:52:34;10.85;;;9.60;;
57389;SDS011;43217;52.694;6.214;2024-03-17T12:57:44;9.02;;;8.20;;
57389;SDS011;43217;52.694;6.214;2024-03-17T13:00:29;9.57;;;7.85;;
57389;SDS011;43217;52.694;6.214;2024-03-17T13:02:58;7.75;;;7.05;;
57389;SDS011;43217;52.694;6.214;2024-03-17T13:05:24;8.07;;;7.15;;
57389;SDS011;43217;52.694;6.214;2024-03-17T13:07:51;7.57;;;6.80;;
57389;SDS011;43217;52.694;6.214;2024-03-17T13:10:19;8.38;;;7.30;;
57389;SDS011;43217;52.694;6.214;2024-03-17T13:12:45;8.15;;;7.35;;
57389;SDS011;43217;52.694;6.214;2024-03-17T13:15:13;8.32;;;6.50;;
57389;SDS011;43217;52.694;6.214;2024-03-17T13:17:40;7.50;;;6.85;;
57389;SDS011;43217;52.694;6.214;2024-03-17T13:20:08;7.13;;;6.53;;
57389;SDS011;43217;52.694;6.214;2024-03-17T13:22:40;6.90;;;6.25;;
57389;SDS011;43217;52.694;6.214;2024-03-17T13:25:13;7.18;;;6.45;;
57389;SDS011;43217;52.694;6.214;2024-03-17T13:27:41;7.20;;;6.50;;
57389;SDS011;43217;52.694;6.214;2024-03-17T13:30:23;7.28;;;6.28;;
57389;SDS011;43217;52.694;6.214;2024-03-17T13:32:52;7.75;;;6.55;;
57389;SDS011;43217;52.694;6.214;2024-03-17T13:35:29;7.03;;;6.32;;
57389;SDS011;43217;52.694;6.214;2024-03-17T13:37:56;7.45;;;6.75;;
57389;SDS011;43217;52.694;6.214;2024-03-17T13:40:26;6.15;;;5.63;;
57389;SDS011;43217;52.694;6.214;2024-03-17T13:42:52;6.60;;;5.68;;
57389;SDS011;43217;52.694;6.214;2024-03-17T13:47:49;6.50;;;5.40;;
57389;SDS011;43217;52.694;6.214;2024-03-17T13:50:18;6.13;;;5.63;;
57389;SDS011;43217;52.694;6.214;2024-03-17T13:52:44;6.38;;;5.70;;
57389;SDS011;43217;52.694;6.214;2024-03-17T13:55:14;5.97;;;5.38;;
57389;SDS011;43217;52.694;6.214;2024-03-17T13:57:42;5.40;;;4.90;;
57389;SDS011;43217;52.694;6.214;2024-03-17T14:00:09;6.00;;;5.50;;
57389;SDS011;43217;52.694;6.214;2024-03-17T14:02:40;6.55;;;5.95;;
57389;SDS011;43217;52.694;6.214;2024-03-17T14:05:07;7.35;;;6.05;;
57389;SDS011;43217;52.694;6.214;2024-03-17T14:07:36;5.18;;;4.68;;
57389;SDS011;43217;52.694;6.214;2024-03-17T14:10:02;6.55;;;4.95;;
57389;SDS011;43217;52.694;6.214;2024-03-17T14:12:28;5.85;;;4.85;;
57389;SDS011;43217;52.694;6.214;2024-03-17T14:14:54;6.20;;;5.55;;
57389;SDS011;43217;52.694;6.214;2024-03-17T14:17:19;6.72;;;6.03;;
57389;SDS011;43217;52.694;6.214;2024-03-17T14:19:45;6.50;;;5.85;;
57389;SDS011;43217;52.694;6.214;2024-03-17T14:22:10;7.35;;;6.47;;
57389;SDS011;43217;52.694;6.214;2024-03-17T14:24:36;6.75;;;6.05;;
57389;SDS011;43217;52.694;6.214;2024-03-17T14:27:02;7.75;;;6.43;;
57389;SDS011;43217;52.694;6.214;2024-03-17T14:29:27;8.70;;;7.80;;
57389;SDS011;43217;52.694;6.214;2024-03-17T14:31:53;7.07;;;6.38;;
57389;SDS011;43217;52.694;6.214;2024-03-17T14:34:19;6.95;;;6.32;;
57389;SDS011;43217;52.694;6.214;2024-03-17T14:36:44;7.00;;;6.30;;
57389;SDS011;43217;52.694;6.214;2024-03-17T14:39:10;6.82;;;6.22;;
57389;SDS011;43217;52.694;6.214;2024-03-17T14:41:36;6.35;;;5.75;;
57389;SDS011;43217;52.694;6.214;2024-03-17T14:44:02;6.90;;;6.30;;
57389;SDS011;43217;52.694;6.214;2024-03-17T14:48:54;8.05;;;7.30;;
57389;SDS011;43217;52.694;6.214;2024-03-17T14:51:20;8.55;;;7.35;;
57389;SDS011;43217;52.694;6.214;2024-03-17T14:53:49;8.43;;;7.65;;
57389;SDS011;43217;52.694;6.214;2024-03-17T14:56:20;7.95;;;7.25;;
57389;SDS011;43217;52.694;6.214;2024-03-17T14:58:46;7.43;;;6.72;;
57389;SDS011;43217;52.694;6.214;2024-03-17T15:01:13;8.02;;;7.22;;
57389;SDS011;43217;52.694;6.214;2024-03-17T15:03:41;7.00;;;6.30;;
57389;SDS011;43217;52.694;6.214;2024-03-17T15:06:14;8.30;;;7.53;;
57389;SDS011;43217;52.694;6.214;2024-03-17T15:08:43;9.15;;;7.28;;
57389;SDS011;43217;52.694;6.214;2024-03-17T15:11:09;8.25;;;7.55;;
57389;SDS011;43217;52.694;6.214;2024-03-17T15:13:35;8.77;;;7.43;;